Time;durP1;ratioP1;P1;durP2;ratioP2;P2;SDS_P1;SDS_P2;PMS_P1;PMS_P2;Temp;Humidity;BMP_temperature;BMP_pressure;BME280_temperature;BME280_humidity;BME280_pressure;Samples;Min_cycle;Max_cycle;Signal;HPM_P1;HPM_P2
2022/06/13 00:00:28;;;;;;;6.50;5.03;;;589.40;2432.00;;;;;;5094015;28;20032;-75
2022/06/13 00:02:54;;;;;;;7.75;4.93;;;589.30;2432.00;;;;;;5094398;28;20077;-75
2022/06/13 00:05:21;;;;;;;17.73;5.15;;;589.10;2432.00;;;;;;5094008;28;20362;-75
2022/06/13 00:07:47;;;;;;;9.10;5.43;;;589.40;2432.00;;;;;;5093853;28;20099;-75
2022/06/13 00:10:13;;;;;;;7.45;5.93;;;589.30;2432.00;;;;;;5094197;28;20107;-75
2022/06/13 00:12:41;;;;;;;8.38;5.50;;;589.20;2432.00;;;;;;5093902;28;20050;-75
2022/06/13 00:15:09;;;;;;;8.52;5.88;;;589.30;2432.00;;;;;;5093982;28;20103;-74
2022/06/13 00:17:35;;;;;;;7.22;5.18;;;589.30;2432.00;;;;;;5092102;28;20086;-75
2022/06/13 00:20:01;;;;;;;8.88;5.57;;;589.10;2432.00;;;;;;5093792;28;20797;-75
2022/06/13 00:22:28;;;;;;;10.10;5.85;;;589.10;2432.00;;;;;;5093586;28;20366;-75
2022/06/13 00:24:53;;;;;;;7.97;4.95;;;589.10;2432.00;;;;;;5093872;28;20031;-75
2022/06/13 00:27:19;;;;;;;7.03;5.57;;;589.10;2432.00;;;;;;5091261;28;20020;-75
2022/06/13 00:29:47;;;;;;;9.68;4.70;;;589.10;2432.00;;;;;;5084249;28;20023;-75
2022/06/13 00:32:14;;;;;;;9.38;4.65;;;589.10;2432.00;;;;;;5090960;28;20043;-75
2022/06/13 00:34:40;;;;;;;8.55;4.72;;;589.10;2432.00;;;;;;5093415;28;20117;-75
2022/06/13 00:37:06;;;;;;;6.78;5.05;;;589.10;2432.00;;;;;;5093572;28;20115;-75
2022/06/13 00:39:32;;;;;;;9.75;4.80;;;589.10;2432.00;;;;;;5093154;28;20036;-75
2022/06/13 00:41:57;;;;;;;9.60;4.88;;;589.00;2432.00;;;;;;5093512;28;20016;-75
2022/06/13 00:44:34;;;;;;;7.55;4.57;;;589.00;2432.00;;;;;;5093387;28;20393;-75
2022/06/13 00:46:59;;;;;;;7.30;4.60;;;588.90;2432.00;;;;;;5093244;28;20016;-75
2022/06/13 00:49:39;;;;;;;5.35;4.03;;;589.00;2432.00;;;;;;5090366;28;20099;-75
2022/06/13 00:52:32;;;;;;;9.18;5.15;;;589.10;2380.80;;;;;;5090527;28;20020;-75
2022/06/13 00:54:58;;;;;;;6.00;4.32;;;589.10;2355.20;;;;;;5092152;28;20024;-75
2022/06/13 00:57:27;;;;;;;12.23;4.68;;;589.00;2355.20;;;;;;5093102;28;20477;-75
2022/06/13 01:00:00;;;;;;;8.57;4.45;;;589.00;2380.80;;;;;;5092910;28;20012;-75
2022/06/13 01:02:27;;;;;;;5.97;4.47;;;589.00;2380.80;;;;;;5090456;28;20520;-75
2022/06/13 01:04:53;;;;;;;6.22;4.15;;;589.10;2355.20;;;;;;5092918;28;20389;-75
2022/06/13 01:07:20;;;;;;;6.13;4.35;;;589.10;2329.60;;;;;;5092964;28;20047;-75
2022/06/13 01:12:34;;;;;;;6.53;3.97;;;589.20;2304.00;;;;;;5090726;28;20023;-75
2022/06/13 01:15:18;;;;;;;5.60;4.45;;;589.30;2278.40;;;;;;5091686;28;20028;-75
2022/06/13 01:18:05;;;;;;;8.75;5.10;;;589.40;2278.40;;;;;;5092233;28;20016;-75
2022/06/13 01:20:45;;;;;;;7.15;4.78;;;589.20;2278.40;;;;;;5090116;28;20122;-75
2022/06/13 01:23:49;;;;;;;6.65;4.68;;;589.20;2278.40;;;;;;5090151;28;20035;-75
2022/06/13 01:26:26;;;;;;;6.47;4.07;;;589.30;2278.40;;;;;;5010594;28;20076;-75
2022/06/13 01:29:13;;;;;;;7.25;4.22;;;589.30;2252.80;;;;;;5010646;28;20153;-75
2022/06/13 01:31:44;;;;;;;12.80;4.93;;;589.30;2278.40;;;;;;5007558;28;20507;-75
2022/06/13 01:34:21;;;;;;;7.97;4.60;;;589.30;2252.80;;;;;;4986031;28;20034;-75
2022/06/13 01:37:07;;;;;;;8.10;4.97;;;589.40;2252.80;;;;;;5010381;28;20091;-74
2022/06/13 01:40:06;;;;;;;9.60;4.38;;;589.30;2278.40;;;;;;5009542;28;20113;-75
2022/06/13 01:42:32;;;;;;;7.57;3.83;;;589.00;2329.60;;;;;;5009230;28;20069;-75
2022/06/13 01:45:09;;;;;;;10.85;3.90;;;589.10;2329.60;;;;;;5010381;28;20549;-75
2022/06/13 01:48:23;;;;;;;6.20;4.03;;;589.00;2329.60;;;;;;4993362;28;20265;-75
2022/06/13 01:51:27;;;;;;;6.10;4.03;;;588.90;2355.20;;;;;;5009999;28;20472;-75
2022/06/13 01:53:58;;;;;;;8.20;4.43;;;588.90;2355.20;;;;;;5009959;28;20222;-75
2022/06/13 01:56:39;;;;;;;6.60;4.20;;;589.00;2304.00;;;;;;5028851;28;20107;-75
2022/06/13 01:59:17;;;;;;;8.07;4.20;;;589.00;2278.40;;;;;;5090026;28;20020;-75
2022/06/13 02:01:50;;;;;;;6.70;4.50;;;589.00;2278.40;;;;;;5089592;28;20494;-75
2022/06/13 02:04:25;;;;;;;5.32;3.80;;;589.10;2252.80;;;;;;5090541;28;20074;-75
2022/06/13 02:07:00;;;;;;;7.53;4.80;;;589.00;2252.80;;;;;;5092036;28;20043;-75
2022/06/13 02:09:35;;;;;;;5.90;3.92;;;589.00;2252.80;;;;;;5089751;28;20020;-75
2022/06/13 02:12:00;;;;;;;7.07;4.28;;;589.00;2252.80;;;;;;5088010;28;20024;-75
2022/06/13 02:14:32;;;;;;;8.45;4.80;;;589.10;2252.80;;;;;;5091674;28;20439;-75
2022/06/13 02:17:05;;;;;;;5.40;4.30;;;589.00;2278.40;;;;;;5091535;28;20466;-75
2022/06/13 02:19:41;;;;;;;6.07;4.18;;;589.00;2278.40;;;;;;5091892;28;20051;-75
2022/06/13 02:22:10;;;;;;;;;;;589.00;2304.00;;;;;;5090086;28;20024;-75
2022/06/13 02:24:39;;;;;;;6.63;4.60;;;589.00;2278.40;;;;;;5091943;28;19916;-74
2022/06/13 02:27:07;;;;;;;5.38;4.30;;;588.90;2304.00;;;;;;5091687;28;20365;-75
2022/06/13 02:29:40;;;;;;;5.18;3.92;;;588.90;2355.20;;;;;;5091674;28;20054;-75
2022/06/13 02:32:15;;;;;;;6.57;4.32;;;588.90;2329.60;;;;;;5089664;28;20063;-75
2022/06/13 02:35:08;;;;;;;5.95;4.72;;;588.80;2329.60;;;;;;5091387;28;20032;-75
2022/06/13 02:37:52;;;;;;;6.60;4.75;;;588.80;2329.60;;;;;;5089661;28;20101;-75
2022/06/13 02:40:26;;;;;;;7.15;4.43;;;588.80;2329.60;;;;;;5091006;28;20044;-75
2022/06/13 02:42:54;;;;;;;8.80;4.65;;;588.80;2329.60;;;;;;5091690;28;20048;-75
2022/06/13 02:45:27;;;;;;;6.60;4.82;;;564.10;2329.60;;;;;;5090143;28;20065;-75
2022/06/13 02:48:08;;;;;;;8.45;4.80;;;564.10;2329.60;;;;;;5091614;28;20028;-75
2022/06/13 02:50:51;;;;;;;7.50;4.60;;;564.10;2329.60;;;;;;5092736;28;20039;-75
2022/06/13 02:53:33;;;;;;;7.28;4.75;;;564.10;2329.60;;;;;;5094584;28;20032;-75
2022/06/13 02:56:22;;;;;;;6.80;4.28;;;564.10;2329.60;;;;;;5094995;28;20032;-74
2022/06/13 02:58:58;;;;;;;6.25;4.70;;;564.10;2355.20;;;;;;5093468;28;20019;-75
2022/06/13 03:01:31;;;;;;;6.90;4.57;;;564.00;2329.60;;;;;;5092637;28;20427;-75
2022/06/13 03:04:08;;;;;;;9.40;4.47;;;564.10;2355.20;;;;;;5095383;28;20024;-75
2022/06/13 03:06:43;;;;;;;8.05;3.85;;;564.10;2355.20;;;;;;5094273;28;20016;-74
2022/06/13 03:09:28;;;;;;;5.95;3.97;;;588.80;2329.60;;;;;;5093115;28;20055;-75
2022/06/13 03:12:03;;;;;;;7.07;4.17;;;588.90;2304.00;;;;;;5101318;28;20027;-75
2022/06/13 03:14:46;;;;;;;7.00;4.68;;;588.90;2304.00;;;;;;5091861;28;20115;-75
2022/06/13 03:17:47;;;;;;;8.05;4.75;;;588.90;2304.00;;;;;;5093486;28;20013;-74
2022/06/13 03:20:18;;;;;;;7.80;5.60;;;588.80;2432.00;;;;;;5079908;28;20044;-75
2022/06/13 03:23:12;;;;;;;9.30;5.82;;;564.00;2432.00;;;;;;5092518;28;20020;-75
2022/06/13 03:25:53;;;;;;;8.82;6.45;;;563.90;2432.00;;;;;;5094228;28;20020;-75
2022/06/13 03:28:36;;;;;;;10.18;5.65;;;563.80;2432.00;;;;;;5094147;28;21323;-75
2022/06/13 03:31:29;;;;;;;8.07;5.43;;;563.80;2432.00;;;;;;5094383;28;20027;-75
2022/06/13 03:33:59;;;;;;;7.50;5.53;;;563.70;2432.00;;;;;;5093424;28;20054;-75
2022/06/13 03:36:37;;;;;;;10.00;5.50;;;563.70;2432.00;;;;;;5090817;28;20023;-75
2022/06/13 03:39:27;;;;;;;7.88;5.55;;;563.70;2432.00;;;;;;5094527;28;20016;-74
2022/06/13 03:42:11;;;;;;;7.47;5.40;;;563.60;2432.00;;;;;;5093225;28;20103;-75
2022/06/13 03:44:47;;;;;;;7.82;6.43;;;563.60;2432.00;;;;;;5091792;28;20067;-75
2022/06/13 03:47:18;;;;;;;8.30;6.80;;;563.40;2432.00;;;;;;5092671;28;20016;-75
2022/06/13 03:49:57;;;;;;;8.45;6.65;;;563.30;2432.00;;;;;;5094043;28;20023;-75
2022/06/13 03:52:25;;;;;;;8.88;7.00;;;563.20;2432.00;;;;;;5094366;28;20298;-74
2022/06/13 03:55:02;;;;;;;7.47;6.78;;;563.40;2432.00;;;;;;5094149;28;20026;-75
2022/06/13 03:57:36;;;;;;;12.38;8.60;;;563.20;2432.00;;;;;;5092122;28;20020;-75
2022/06/13 04:00:13;;;;;;;12.18;7.43;;;563.30;2432.00;;;;;;5094137;28;20557;-75
2022/06/13 04:02:41;;;;;;;9.70;6.85;;;563.40;2432.00;;;;;;5094032;28;20024;-75
2022/06/13 04:05:35;;;;;;;10.13;7.63;;;563.30;2432.00;;;;;;5091343;28;20488;-75
2022/06/13 04:08:03;;;;;;;9.68;6.72;;;563.30;2432.00;;;;;;5092754;28;20042;-75
2022/06/13 04:10:36;;;;;;;13.63;7.55;;;563.30;2432.00;;;;;;5093942;28;20036;-75
2022/06/13 04:13:20;;;;;;;8.60;7.15;;;538.40;2406.40;;;;;;5090449;28;20496;-78
2022/06/13 04:15:49;;;;;;;9.50;6.88;;;538.50;2406.40;;;;;;5091568;28;20099;-76
2022/06/13 04:18:23;;;;;;;12.50;7.03;;;538.50;2406.40;;;;;;5093718;28;20024;-75
2022/06/13 04:21:00;;;;;;;9.15;7.05;;;563.20;2432.00;;;;;;5094005;28;20378;-76
2022/06/13 04:23:40;;;;;;;10.05;7.68;;;563.40;2432.00;;;;;;5091942;28;20034;-76
2022/06/13 04:26:14;;;;;;;13.15;7.53;;;563.50;2432.00;;;;;;5091775;28;20107;-76
2022/06/13 04:29:09;;;;;;;19.00;8.25;;;563.40;2432.00;;;;;;5091217;28;20020;-76
2022/06/13 04:31:36;;;;;;;11.95;7.93;;;563.50;2432.00;;;;;;5093000;28;20024;-76
2022/06/13 04:34:08;;;;;;;9.73;7.70;;;563.50;2432.00;;;;;;5094205;28;20028;-76
2022/06/13 04:36:35;;;;;;;8.43;6.88;;;563.60;2432.00;;;;;;5106465;28;20024;-78
2022/06/13 04:39:05;;;;;;;10.20;8.05;;;563.60;2432.00;;;;;;5103204;28;20023;-77
2022/06/13 04:41:35;;;;;;;9.90;7.80;;;563.70;2432.00;;;;;;5093326;28;20127;-77
2022/06/13 04:44:03;;;;;;;11.98;7.45;;;563.70;2432.00;;;;;;5093223;28;20039;-75
2022/06/13 04:46:30;;;;;;;11.60;7.50;;;563.70;2432.00;;;;;;5107611;28;20095;-78
2022/06/13 04:48:59;;;;;;;10.45;7.43;;;563.80;2432.00;;;;;;5103291;28;20072;-76
2022/06/13 04:51:46;;;;;;;14.95;8.40;;;563.90;2432.00;;;;;;5111830;28;20069;-77
2022/06/13 04:54:19;;;;;;;8.52;6.60;;;563.90;2432.00;;;;;;5104154;28;20093;-77
2022/06/13 04:56:46;;;;;;;13.90;8.30;;;564.00;2432.00;;;;;;5094283;28;20496;-76
2022/06/13 04:59:16;;;;;;;9.15;6.95;;;564.00;2432.00;;;;;;5091845;28;20024;-77
2022/06/13 05:01:49;;;;;;;17.85;7.70;;;564.00;2432.00;;;;;;5092010;28;20110;-75
2022/06/13 05:04:21;;;;;;;12.48;6.97;;;564.10;2432.00;;;;;;5111685;28;20016;-75
2022/06/13 05:06:51;;;;;;;8.75;6.45;;;564.00;2432.00;;;;;;5107410;28;20147;-77
2022/06/13 05:09:26;;;;;;;9.48;7.60;;;564.10;2432.00;;;;;;5106076;28;20024;-75
2022/06/13 05:12:08;;;;;;;10.38;7.38;;;588.80;2432.00;;;;;;5113067;28;20123;-77
2022/06/13 05:14:50;;;;;;;14.48;7.57;;;588.80;2432.00;;;;;;5113524;28;20067;-77
2022/06/13 05:17:58;;;;;;;12.38;8.98;;;588.90;2432.00;;;;;;5101860;28;20043;-79
2022/06/13 05:20:34;;;;;;;15.68;7.68;;;588.80;2432.00;;;;;;5010444;28;20495;-77
2022/06/13 05:23:11;;;;;;;10.48;7.72;;;588.90;2432.00;;;;;;5010313;28;20042;-77
2022/06/13 05:25:48;;;;;;;10.07;7.78;;;588.90;2432.00;;;;;;5014494;28;20125;-77
2022/06/13 05:28:20;;;;;;;10.63;7.20;;;588.90;2432.00;;;;;;5012925;28;20034;-76
2022/06/13 05:30:51;;;;;;;10.13;6.65;;;589.00;2432.00;;;;;;5013893;28;20029;-76
2022/06/13 05:33:20;;;;;;;15.90;7.43;;;589.20;2432.00;;;;;;5016009;28;20036;-78
2022/06/13 05:35:47;;;;;;;8.43;6.43;;;589.10;2432.00;;;;;;5016101;28;20052;-78
2022/06/13 05:38:18;;;;;;;11.40;6.55;;;589.20;2432.00;;;;;;5025914;28;20034;-78
2022/06/13 05:40:45;;;;;;;11.00;6.55;;;589.30;2432.00;;;;;;5010620;28;20448;-77
2022/06/13 05:43:13;;;;;;;10.88;6.45;;;589.50;2432.00;;;;;;4991141;28;20042;-76
2022/06/13 05:45:40;;;;;;;9.25;5.45;;;589.60;2432.00;;;;;;4991474;28;20022;-78
2022/06/13 05:48:13;;;;;;;12.73;6.95;;;589.70;2432.00;;;;;;5012949;28;20064;-78
2022/06/13 05:50:39;;;;;;;11.77;6.70;;;614.40;2432.00;;;;;;5013714;28;20450;-77
2022/06/13 05:53:05;;;;;;;9.63;5.85;;;614.50;2432.00;;;;;;5028814;28;20087;-77
2022/06/13 05:55:31;;;;;;;12.15;6.70;;;614.50;2432.00;;;;;;5010973;28;20041;-77
2022/06/13 05:57:57;;;;;;;14.20;6.95;;;614.70;2432.00;;;;;;5097352;28;20032;-78
2022/06/13 06:00:27;;;;;;;11.15;5.90;;;614.80;2432.00;;;;;;5105972;28;20386;-78
2022/06/13 06:02:52;;;;;;;11.93;7.15;;;614.80;2432.00;;;;;;5104907;28;20026;-77
2022/06/13 06:05:18;;;;;;;8.35;5.70;;;615.00;2406.40;;;;;;5098574;28;20016;-77
2022/06/13 06:07:52;;;;;;;11.57;6.45;;;615.00;2432.00;;;;;;5111650;28;20024;-78
2022/06/13 06:10:29;;;;;;;13.57;5.95;;;615.10;2380.80;;;;;;5112678;28;20038;-77
2022/06/13 06:12:54;;;;;;;12.38;5.80;;;615.20;2355.20;;;;;;5101861;28;20028;-78
2022/06/13 06:15:21;;;;;;;9.32;5.97;;;615.30;2329.60;;;;;;5092329;28;20039;-78
2022/06/13 06:17:46;;;;;;;13.00;6.32;;;615.30;2304.00;;;;;;5100053;28;20072;-78
2022/06/13 06:20:19;;;;;;;11.65;5.20;;;640.00;2304.00;;;;;;5112615;28;20567;-78
2022/06/13 06:22:45;;;;;;;11.07;5.85;;;640.10;2278.40;;;;;;5103637;28;20024;-78
2022/06/13 06:25:11;;;;;;;9.23;5.22;;;640.30;2227.20;;;;;;5107211;28;20028;-76
2022/06/13 06:27:37;;;;;;;11.05;5.55;;;640.40;2124.80;;;;;;5101098;28;20039;-77
2022/06/13 06:30:03;;;;;;;10.75;6.07;;;640.50;2176.00;;;;;;5103136;28;20063;-78
2022/06/13 06:32:29;;;;;;;9.98;5.43;;;640.60;2176.00;;;;;;5113323;28;20027;-78
2022/06/13 06:34:55;;;;;;;10.80;5.03;;;640.70;2150.40;;;;;;5115361;28;20035;-77
2022/06/13 06:37:21;;;;;;;8.95;4.60;;;640.80;2073.60;;;;;;5100134;28;20485;-77
2022/06/13 06:39:47;;;;;;;11.10;4.70;;;640.90;2073.60;;;;;;5096183;28;20123;-77
2022/06/13 06:42:13;;;;;;;8.93;4.90;;;665.60;2099.20;;;;;;5110639;28;20019;-77
2022/06/13 06:44:38;;;;;;;5.82;4.43;;;665.70;2073.60;;;;;;5116409;28;20473;-77
2022/06/13 06:47:06;;;;;;;7.97;4.45;;;665.80;2099.20;;;;;;5108280;28;20012;-78
2022/06/13 06:49:34;;;;;;;6.85;5.10;;;640.90;2022.40;;;;;;5109099;28;20054;-78
2022/06/13 06:52:01;;;;;;;7.13;4.40;;;665.90;1996.80;;;;;;5109815;28;20066;-77
2022/06/13 06:59:56;;;;;;;5.85;4.60;;;666.10;1971.20;;;;;;5110332;28;20061;-78
2022/06/13 07:02:24;;;;;;;8.63;4.10;;;666.20;2022.40;;;;;;5103990;28;20031;-82
2022/06/13 07:05:01;;;;;;;7.15;4.70;;;666.40;2048.00;;;;;;5116201;28;20019;-75
2022/06/13 07:07:27;;;;;;;6.32;4.82;;;666.50;1945.60;;;;;;5108228;28;20493;-77
2022/06/13 07:09:53;;;;;;;5.63;4.13;;;691.20;1920.00;;;;;;5108570;28;20051;-77
2022/06/13 07:12:19;;;;;;;6.25;4.35;;;691.20;1920.00;;;;;;5116055;28;20074;-77
2022/06/13 07:14:45;;;;;;;6.18;4.32;;;691.40;1996.80;;;;;;5102340;28;20035;-78
2022/06/13 07:17:13;;;;;;;7.38;4.65;;;691.50;1971.20;;;;;;5112611;28;20064;-77
2022/06/13 07:19:39;;;;;;;7.53;4.47;;;691.70;1945.60;;;;;;5105068;28;20485;-75
2022/06/13 07:22:07;;;;;;;4.80;3.88;;;691.70;1868.80;;;;;;5109959;28;20062;-77
2022/06/13 07:24:34;;;;;;;5.32;3.38;;;691.70;1715.20;;;;;;5104040;28;20020;-77
2022/06/13 07:27:00;;;;;;;5.40;3.70;;;691.80;1740.80;;;;;;5113584;28;20039;-77
2022/06/13 07:29:26;;;;;;;6.70;3.90;;;692.00;1715.20;;;;;;5100717;28;20036;-77
2022/06/13 07:31:58;;;;;;;4.40;3.70;;;692.00;1740.80;;;;;;5114340;28;20035;-76
2022/06/13 07:34:27;;;;;;;5.82;4.07;;;692.10;1715.20;;;;;;5114154;28;20122;-77
2022/06/13 07:36:55;;;;;;;7.75;3.97;;;716.80;1689.60;;;;;;5115144;28;20020;-77
2022/06/13 07:39:21;;;;;;;7.25;3.70;;;716.90;1664.00;;;;;;5096637;28;20043;-77
2022/06/13 07:41:48;;;;;;;5.22;3.08;;;716.90;1638.40;;;;;;5104140;28;20059;-77
2022/06/13 07:44:25;;;;;;;8.50;3.55;;;717.00;1664.00;;;;;;5098588;28;20028;-77
2022/06/13 07:46:51;;;;;;;7.97;3.67;;;717.10;1561.60;;;;;;5093846;28;20026;-79
2022/06/13 07:49:18;;;;;;;5.15;3.85;;;717.20;1587.20;;;;;;5105790;28;20043;-78
2022/06/13 07:51:44;;;;;;;9.23;3.75;;;717.20;1587.20;;;;;;5114065;28;20496;-78
2022/06/13 07:54:10;;;;;;;4.60;3.53;;;717.30;1638.40;;;;;;5104143;28;20541;-77
2022/06/13 07:56:38;;;;;;;6.15;4.20;;;717.40;1587.20;;;;;;5109431;28;20019;-78
2022/06/13 07:59:06;;;;;;;5.05;3.42;;;717.30;1587.20;;;;;;5103331;28;20019;-77
2022/06/13 08:01:32;;;;;;;8.85;4.05;;;717.50;1587.20;;;;;;5115375;28;20103;-79
2022/06/13 08:03:58;;;;;;;5.85;3.70;;;717.50;1587.20;;;;;;5107589;28;20056;-78
2022/06/13 08:06:25;;;;;;;6.47;3.95;;;717.60;1587.20;;;;;;5094821;28;20508;-77
2022/06/13 08:08:51;;;;;;;7.88;4.13;;;717.70;1587.20;;;;;;5113044;28;20030;-80
2022/06/13 08:11:32;;;;;;;6.32;3.90;;;717.40;1510.40;;;;;;5113991;28;20031;-80
2022/06/13 08:13:58;;;;;;;5.97;3.92;;;717.70;1536.00;;;;;;5113425;28;20028;-78
2022/06/13 08:16:25;;;;;;;7.57;4.03;;;717.70;1536.00;;;;;;5114703;28;20036;-78
2022/06/13 08:18:50;;;;;;;6.00;3.80;;;742.40;1561.60;;;;;;5109270;28;20059;-78
2022/06/13 08:21:17;;;;;;;7.30;3.80;;;742.40;1561.60;;;;;;5103449;28;20092;-78
2022/06/13 08:23:43;;;;;;;5.88;3.35;;;742.50;1561.60;;;;;;5097137;28;20035;-78
2022/06/13 08:26:09;;;;;;;6.40;4.45;;;742.50;1510.40;;;;;;5093266;28;20024;-79
2022/06/13 08:28:36;;;;;;;7.25;4.10;;;742.50;1536.00;;;;;;5108333;28;20068;-79
2022/06/13 08:31:08;;;;;;;9.95;3.97;;;742.50;1561.60;;;;;;5113340;28;20016;-78
2022/06/13 08:33:34;;;;;;;4.53;3.55;;;;;;;;;;5100358;28;20061;-81
2022/06/13 08:36:00;;;;;;;10.95;4.00;;;742.50;1561.60;;;;;;5098264;28;20027;-80
2022/06/13 08:38:26;;;;;;;5.63;3.70;;;742.80;1561.60;;;;;;5113404;28;20028;-81
2022/06/13 08:40:51;;;;;;;6.28;4.13;;;742.80;1536.00;;;;;;5114802;28;20563;-80
2022/06/13 08:43:20;;;;;;;5.35;3.90;;;742.80;1459.20;;;;;;5103895;28;20495;-78
2022/06/13 08:46:21;;;;;;;9.27;3.58;;;742.80;1459.20;;;;;;5107606;28;20026;-78
2022/06/13 08:48:49;;;;;;;6.07;3.42;;;742.70;1459.20;;;;;;5035622;28;20123;-88
2022/06/13 08:51:22;;;;;;;5.32;3.03;;;742.90;1484.80;;;;;;5024978;28;20064;-84
2022/06/13 08:53:57;;;;;;;7.38;4.07;;;743.00;1484.80;;;;;;5035925;28;20091;-84
2022/06/13 08:56:25;;;;;;;4.22;3.55;;;743.00;1433.60;;;;;;5035867;28;20021;-84
2022/06/13 08:59:22;;;;;;;6.78;3.45;;;743.10;1459.20;;;;;;5067977;28;20116;-81
2022/06/13 09:01:58;;;;;;;7.20;3.90;;;743.10;1459.20;;;;;;5068068;28;20044;-82
2022/06/13 09:04:40;;;;;;;3.95;2.80;;;743.10;1408.00;;;;;;5035336;28;20276;-82
2022/06/13 09:07:34;;;;;;;5.95;3.28;;;743.20;1408.00;;;;;;5035560;28;20025;-83
2022/06/13 09:10:11;;;;;;;8.18;3.72;;;743.30;1408.00;;;;;;5032714;28;20026;-84
2022/06/13 09:12:43;;;;;;;6.28;3.22;;;768.10;1459.20;;;;;;5034924;28;20036;-82
2022/06/13 09:15:11;;;;;;;6.28;3.63;;;768.20;1459.20;;;;;;5034055;28;20131;-81
2022/06/13 09:18:03;;;;;;;7.82;3.65;;;768.30;1408.00;;;;;;5030617;28;20495;-82
2022/06/13 09:20:38;;;;;;;7.47;3.33;;;768.40;1433.60;;;;;;5031949;28;20029;-80
2022/06/13 09:23:28;;;;;;;6.90;2.70;;;768.50;1356.80;;;;;;5035176;28;20494;-81
2022/06/13 09:26:06;;;;;;;4.38;3.40;;;768.60;1331.20;;;;;;5069111;28;20035;-81
2022/06/13 09:28:51;;;;;;;6.90;3.60;;;768.70;1305.60;;;;;;5099811;28;20020;-79
2022/06/13 09:31:31;;;;;;;6.20;3.22;;;768.80;1280.00;;;;;;5079435;28;20400;-79
2022/06/13 09:34:13;;;;;;;9.40;4.18;;;793.70;1305.60;;;;;;5095219;28;20362;-79
2022/06/13 09:36:54;;;;;;;4.30;3.45;;;793.70;1305.60;;;;;;5111884;28;20051;-79
2022/06/13 09:39:20;;;;;;;7.32;3.40;;;793.70;1280.00;;;;;;5108761;28;20048;-79
2022/06/13 09:42:12;;;;;;;5.68;3.33;;;793.80;1280.00;;;;;;5102138;28;20051;-79
2022/06/13 09:45:05;;;;;;;4.53;2.75;;;794.10;1254.40;;;;;;5077606;28;20051;-80
2022/06/13 09:47:46;;;;;;;7.78;2.78;;;794.00;1228.80;;;;;;5096343;28;20556;-80
2022/06/13 09:50:11;;;;;;;5.90;3.28;;;794.20;1228.80;;;;;;5111684;28;20172;-80
2022/06/13 09:52:43;;;;;;;5.32;2.80;;;794.20;1280.00;;;;;;5113219;28;20100;-79
2022/06/13 09:55:11;;;;;;;3.70;2.58;;;794.50;1280.00;;;;;;5097435;28;20180;-79
2022/06/13 09:57:58;;;;;;;8.85;3.13;;;819.30;1203.20;;;;;;5113302;28;20024;-79
2022/06/13 10:00:46;;;;;;;6.70;3.28;;;819.30;1254.40;;;;;;5113098;28;20020;-80
2022/06/13 10:03:25;;;;;;;5.25;3.08;;;819.50;1254.40;;;;;;5030365;28;20073;-79
2022/06/13 10:06:09;;;;;;;4.90;3.00;;;819.50;1203.20;;;;;;5013772;28;20033;-79
2022/06/13 10:08:35;;;;;;;8.20;3.25;;;819.60;1228.80;;;;;;5030411;28;20484;-79
2022/06/13 10:11:14;;;;;;;6.75;3.28;;;819.60;1203.20;;;;;;5030482;28;20040;-78
2022/06/13 10:14:05;;;;;;;4.35;3.05;;;819.70;1177.60;;;;;;5029786;28;20034;-79
2022/06/13 10:17:04;;;;;;;8.30;3.67;;;819.90;1203.20;;;;;;5030476;28;20018;-79
2022/06/13 10:19:30;;;;;;;4.97;3.25;;;820.10;1177.60;;;;;;5030017;28;20369;-79
2022/06/13 10:22:10;;;;;;;7.30;2.92;;;844.80;1203.20;;;;;;5029149;28;20039;-79
2022/06/13 10:24:45;;;;;;;3.53;2.90;;;820.10;1126.40;;;;;;5010704;28;20033;-81
2022/06/13 10:27:30;;;;;;;7.03;2.95;;;844.80;1228.80;;;;;;5008077;28;20033;-88
2022/06/13 10:29:56;;;;;;;6.30;3.47;;;845.00;1177.60;;;;;;5021481;28;20053;-79
2022/06/13 10:32:42;;;;;;;4.00;3.15;;;845.00;1126.40;;;;;;5000331;28;20072;-85
2022/06/13 10:35:19;;;;;;;4.20;3.45;;;845.00;1152.00;;;;;;5013583;28;20163;-78
2022/06/13 10:38:06;;;;;;;3.97;3.38;;;845.20;1177.60;;;;;;5011530;28;20022;-82
2022/06/13 10:40:32;;;;;;;6.47;3.67;;;845.20;1203.20;;;;;;5041246;28;20049;-79
2022/06/13 10:42:59;;;;;;;4.82;3.10;;;845.20;1177.60;;;;;;5112409;28;20024;-79
2022/06/13 10:45:25;;;;;;;6.85;3.15;;;845.40;1152.00;;;;;;5098279;28;20032;-80
2022/06/13 10:48:03;;;;;;;6.28;3.65;;;845.40;1152.00;;;;;;5090897;28;20024;-83
2022/06/13 10:50:59;;;;;;;4.07;2.75;;;845.50;1100.80;;;;;;5091042;28;20020;-80
2022/06/13 10:53:44;;;;;;;6.97;3.25;;;845.60;1075.20;;;;;;5050028;28;20052;-79
2022/06/13 10:56:36;;;;;;;4.72;3.17;;;845.70;1126.40;;;;;;5033183;28;20037;-81
2022/06/13 10:59:01;;;;;;;4.88;3.22;;;870.40;1075.20;;;;;;4951807;29;20664;-80
2022/06/13 11:01:31;;;;;;;4.18;3.15;;;870.40;1049.60;;;;;;4935679;29;20130;-79
2022/06/13 11:04:00;;;;;;;5.50;3.08;;;870.50;1024.00;;;;;;4951938;29;20028;-80
2022/06/13 11:06:43;;;;;;;4.50;3.50;;;870.40;1049.60;;;;;;4935677;29;20094;-80
2022/06/13 11:09:23;;;;;;;6.03;3.35;;;870.40;1100.80;;;;;;4951701;29;20070;-80
2022/06/13 11:11:54;;;;;;;6.38;4.13;;;845.10;1152.00;;;;;;4954910;28;20043;-84
2022/06/13 11:14:28;;;;;;;4.10;3.05;;;819.90;1126.40;;;;;;4939787;29;20122;-85
2022/06/13 11:22:38;;;;;;;4.18;2.90;;;845.40;1100.80;;;;;;4955215;29;20074;-77
2022/06/13 11:25:17;;;;;;;3.92;2.75;;;845.60;1100.80;;;;;;4938636;29;20303;-77
2022/06/13 11:28:00;;;;;;;3.63;2.60;;;870.50;1049.60;;;;;;4954998;29;20026;-78
2022/06/13 11:30:29;;;;;;;3.55;2.75;;;870.40;1024.00;;;;;;4984501;28;20060;-77
2022/06/13 11:33:02;;;;;;;6.45;2.90;;;870.50;1024.00;;;;;;4993383;28;20101;-77
2022/06/13 11:35:48;;;;;;;5.30;3.05;;;870.60;1024.00;;;;;;5015913;28;20123;-77
2022/06/13 11:38:49;;;;;;;4.00;2.60;;;870.60;1049.60;;;;;;5115425;28;20504;-77
2022/06/13 11:41:22;;;;;;;4.55;3.10;;;845.60;1024.00;;;;;;5032498;28;20049;-78
2022/06/13 11:44:00;;;;;;;4.43;3.33;;;845.10;1075.20;;;;;;5003200;28;20034;-77
2022/06/13 11:46:30;;;;;;;5.90;2.80;;;820.00;1100.80;;;;;;5013217;28;20030;-78
2022/06/13 11:49:17;;;;;;;4.28;3.28;;;820.00;1100.80;;;;;;5005219;28;20099;-78
2022/06/13 11:51:57;;;;;;;3.72;3.03;;;845.00;1152.00;;;;;;5021607;28;20045;-78
2022/06/13 11:54:46;;;;;;;4.28;3.33;;;845.40;1100.80;;;;;;5004033;28;20271;-78
2022/06/13 11:57:15;;;;;;;5.20;2.80;;;845.60;1075.20;;;;;;5012738;28;20030;-77
2022/06/13 11:59:44;;;;;;;3.67;2.80;;;845.60;1049.60;;;;;;5012517;28;20541;-79
2022/06/13 12:02:18;;;;;;;3.90;2.55;;;870.40;1049.60;;;;;;5005242;28;20483;-78
2022/06/13 12:04:46;;;;;;;3.83;2.90;;;870.50;1024.00;;;;;;5015655;28;20048;-78
2022/06/13 12:07:52;;;;;;;6.82;2.92;;;870.40;1024.00;;;;;;5015522;28;20021;-78
2022/06/13 12:10:21;;;;;;;5.10;2.42;;;870.60;1049.60;;;;;;4953880;28;20032;-78
2022/06/13 12:12:47;;;;;;;3.78;2.50;;;870.70;1049.60;;;;;;4963458;28;20027;-78
2022/06/13 12:15:15;;;;;;;4.38;2.80;;;870.70;1024.00;;;;;;4959651;28;20058;-78
2022/06/13 12:17:51;;;;;;;5.18;2.67;;;870.70;1049.60;;;;;;5057480;28;20041;-78
2022/06/13 12:20:20;;;;;;;3.45;2.80;;;870.90;1024.00;;;;;;5071282;28;20052;-78
2022/06/13 12:22:59;;;;;;;4.20;2.72;;;870.90;1024.00;;;;;;5062772;28;20435;-78
2022/06/13 12:25:25;;;;;;;6.50;2.88;;;870.40;1049.60;;;;;;5036659;28;20201;-78
2022/06/13 12:28:17;;;;;;;3.97;2.95;;;845.30;1075.20;;;;;;5071906;28;20545;-78
2022/06/13 12:30:49;;;;;;;6.53;3.17;;;845.40;1075.20;;;;;;5068545;28;20136;-76
2022/06/13 12:33:45;;;;;;;5.10;3.05;;;845.60;1075.20;;;;;;5034940;28;20036;-79
2022/06/13 12:36:10;;;;;;;;;;;870.40;1075.20;;;;;;5041355;28;20024;-77
2022/06/13 12:38:54;;;;;;;4.15;2.80;;;870.60;1049.60;;;;;;5054909;28;19991;-78
2022/06/13 12:41:38;;;;;;;5.63;2.80;;;870.70;1024.00;;;;;;5044983;28;20133;-77
2022/06/13 12:44:44;;;;;;;7.50;3.35;;;870.80;1049.60;;;;;;5071282;28;20099;-79
2022/06/13 12:47:18;;;;;;;2.70;2.22;;;871.00;1024.00;;;;;;5021895;28;20060;-78
2022/06/13 12:50:05;;;;;;;3.60;2.58;;;871.10;998.40;;;;;;5030692;28;20583;-80
2022/06/13 12:52:39;;;;;;;5.47;2.88;;;871.10;972.80;;;;;;5051396;28;20037;-80
2022/06/13 12:55:30;;;;;;;7.03;2.75;;;871.10;947.20;;;;;;5051053;28;20040;-79
2022/06/13 12:58:32;;;;;;;8.50;2.53;;;871.00;947.20;;;;;;5037831;28;20041;-80
2022/06/13 13:01:02;;;;;;;7.55;3.03;;;871.00;947.20;;;;;;5024753;28;20483;-77
2022/06/13 13:03:56;;;;;;;4.93;2.75;;;870.90;972.80;;;;;;5020657;28;20115;-79
2022/06/13 13:06:33;;;;;;;3.65;2.90;;;871.00;998.40;;;;;;5038187;28;20449;-78